Time;durP1;ratioP1;P1;durP2;ratioP2;P2;SDS_P1;SDS_P2;PMS_P1;PMS_P2;Temp;Humidity;BMP_temperature;BMP_pressure;BME280_temperature;BME280_humidity;BME280_pressure;Samples;Min_cycle;Max_cycle;Signal;HPM_P1;HPM_P2
2023/08/26 00:00:21;;;;;;;;;;;26.70;99.90;;;;;;5115053;28;19983;-70
2023/08/26 00:02:47;;;;;;;;;;;26.60;99.90;;;;;;5114837;28;20284;-70
2023/08/26 00:05:13;;;;;;;;;;;26.60;99.90;;;;;;5114536;28;19908;-70
2023/08/26 00:07:39;;;;;;;;;;;26.60;99.90;;;;;;5114727;28;20408;-71
2023/08/26 00:10:05;;;;;;;;;;;26.60;99.90;;;;;;5095929;28;19911;-70
2023/08/26 00:12:31;;;;;;;;;;;26.60;99.90;;;;;;5096112;28;19914;-70
2023/08/26 00:14:57;;;;;;;;;;;26.70;99.90;;;;;;5114571;28;19999;-70
2023/08/26 00:17:23;;;;;;;;;;;26.70;99.90;;;;;;5114557;28;19922;-70
2023/08/26 00:19:50;;;;;;;;;;;26.80;99.90;;;;;;5114761;28;20328;-70
2023/08/26 00:22:16;;;;;;;;;;;26.80;99.90;;;;;;5095695;28;19915;-70
2023/08/26 00:24:42;;;;;;;;;;;26.80;99.90;;;;;;5114715;28;20245;-70
2023/08/26 00:27:08;;;;;;;;;;;26.80;99.90;;;;;;5114679;28;20419;-70
2023/08/26 00:29:34;;;;;;;;;;;26.80;99.90;;;;;;5113396;28;19912;-70
2023/08/26 00:32:00;;;;;;;;;;;26.70;99.90;;;;;;5114608;28;20236;-71
2023/08/26 00:34:26;;;;;;;;;;;26.70;99.90;;;;;;5113807;28;20007;-70
2023/08/26 00:36:51;;;;;;;;;;;26.70;99.90;;;;;;5114270;28;19923;-72
2023/08/26 00:39:17;;;;;;;;;;;26.70;99.90;;;;;;5114491;28;19908;-70
2023/08/26 00:41:43;;;;;;;;;;;26.70;99.90;;;;;;5113714;28;19915;-70
2023/08/26 00:44:09;;;;;;;;;;;26.60;99.90;;;;;;5113899;28;19907;-71
2023/08/26 00:46:35;;;;;;;;;;;26.60;99.90;;;;;;5114438;28;19947;-70
2023/08/26 00:49:01;;;;;;;;;;;26.70;99.90;;;;;;5113898;28;19907;-70
2023/08/26 00:51:27;;;;;;;;;;;26.70;99.90;;;;;;5113885;28;19908;-70
2023/08/26 00:53:53;;;;;;;;;;;26.80;99.90;;;;;;5095471;28;20283;-71
2023/08/26 00:56:19;;;;;;;;;;;26.80;99.90;;;;;;5095379;28;19908;-70
2023/08/26 00:58:45;;;;;;;;;;;26.80;99.90;;;;;;5113809;28;19994;-68
2023/08/26 01:01:11;;;;;;;;;;;26.80;99.90;;;;;;5114203;28;19927;-71
2023/08/26 01:03:37;;;;;;;;;;;26.70;99.90;;;;;;5113740;28;19912;-72
2023/08/26 01:06:03;;;;;;;;;;;26.70;99.90;;;;;;5114235;28;20267;-70
2023/08/26 01:08:29;;;;;;;;;;;26.60;99.90;;;;;;5114145;28;20324;-70
2023/08/26 01:11:13;;;;;;;;;;;26.50;99.90;;;;;;5113441;28;19911;-70
2023/08/26 01:13:48;;;;;;;;;;;26.40;99.90;;;;;;5113840;28;20323;-70
2023/08/26 01:16:14;;;;;;;;;;;26.30;99.90;;;;;;5114061;28;19908;-70
2023/08/26 01:18:41;;;;;;;;;;;26.30;99.90;;;;;;5113602;28;19907;-70
2023/08/26 01:21:09;;;;;;;;;;;26.20;99.90;;;;;;5113506;28;19919;-71
2023/08/26 01:23:42;;;;;;;;;;;26.10;99.90;;;;;;5113663;28;19912;-70
2023/08/26 01:26:08;;;;;;;;;;;26.10;99.90;;;;;;5113771;28;19943;-71
2023/08/26 01:28:33;;;;;;;;;;;26.10;99.90;;;;;;5113754;28;19907;-70
2023/08/26 01:31:01;;;;;;;;;;;26.20;99.90;;;;;;5113489;28;19907;-70
2023/08/26 01:33:32;;;;;;;;;;;26.10;99.90;;;;;;5113545;28;19907;-70
2023/08/26 01:35:59;;;;;;;;;;;26.10;99.90;;;;;;5094967;28;20372;-70
2023/08/26 01:38:25;;;;;;;;;;;26.10;99.90;;;;;;5113955;28;19915;-70
2023/08/26 01:40:53;;;;;;;;;;;26.10;99.90;;;;;;5114871;28;20313;-70
2023/08/26 01:43:20;;;;;;;;;;;26.00;99.90;;;;;;5117538;28;19907;-70
2023/08/26 01:45:46;;;;;;;;;;;26.00;99.90;;;;;;5117227;28;19908;-70
2023/08/26 01:48:11;;;;;;;;;;;26.00;99.90;;;;;;5117799;28;19912;-70
2023/08/26 01:50:37;;;;;;;;;;;26.00;99.90;;;;;;5117365;28;20268;-70
2023/08/26 01:53:03;;;;;;;;;;;26.00;99.90;;;;;;5098595;28;19990;-70
2023/08/26 01:55:29;;;;;;;;;;;26.00;99.90;;;;;;5117280;28;19914;-70
2023/08/26 01:57:55;;;;;;;;;;;25.80;99.90;;;;;;5117070;28;20338;-70
2023/08/26 02:00:21;;;;;;;;;;;25.80;99.90;;;;;;5116946;28;19926;-70
2023/08/26 02:02:47;;;;;;;;;;;25.80;99.90;;;;;;5116454;28;19911;-70
2023/08/26 02:05:13;;;;;;;;;;;25.80;99.90;;;;;;5098550;28;19915;-71
2023/08/26 02:07:39;;;;;;;;;;;25.80;99.90;;;;;;5117100;28;20014;-70
2023/08/26 02:10:05;;;;;;;;;;;25.80;99.90;;;;;;5116592;28;19978;-70
2023/08/26 02:12:31;;;;;;;;;;;25.80;99.90;;;;;;5116984;28;20245;-70
2023/08/26 02:14:57;;;;;;;;;;;25.70;99.90;;;;;;5116790;28;20355;-71
2023/08/26 02:17:23;;;;;;;;;;;25.70;99.90;;;;;;5117373;28;19907;-71
2023/08/26 02:19:48;;;;;;;;;;;25.60;99.90;;;;;;5117009;28;19915;-71
2023/08/26 02:22:15;;;;;;;;;;;25.60;99.90;;;;;;5116608;28;19916;-71
2023/08/26 02:24:41;;;;;;;;;;;25.50;99.90;;;;;;5117241;28;20006;-71
2023/08/26 02:27:07;;;;;;;;;;;25.60;99.90;;;;;;5116615;28;19969;-71
2023/08/26 02:29:33;;;;;;;;;;;25.60;99.90;;;;;;5116610;28;19908;-71
2023/08/26 02:31:59;;;;;;;;;;;25.60;99.90;;;;;;5116561;28;19914;-71
2023/08/26 02:34:25;;;;;;;;;;;25.70;99.90;;;;;;5116566;28;19911;-71
2023/08/26 02:36:52;;;;;;;;;;;25.70;99.90;;;;;;5098169;28;19920;-71
2023/08/26 02:39:18;;;;;;;;;;;25.70;99.90;;;;;;5116307;28;20021;-71
2023/08/26 02:41:44;;;;;;;;;;;25.70;99.90;;;;;;5116213;28;20010;-71
2023/08/26 02:44:10;;;;;;;;;;;25.80;99.90;;;;;;5116870;28;19912;-71
2023/08/26 02:46:36;;;;;;;;;;;25.80;99.90;;;;;;5117091;28;20207;-71
2023/08/26 02:49:02;;;;;;;;;;;25.80;99.90;;;;;;5116060;28;19962;-71
2023/08/26 02:51:27;;;;;;;;;;;25.80;99.90;;;;;;5116554;28;20006;-71
2023/08/26 02:53:53;;;;;;;;;;;25.80;99.90;;;;;;5115948;28;20305;-71
2023/08/26 02:56:19;;;;;;;;;;;25.80;99.90;;;;;;5116015;28;20010;-71
2023/08/26 02:58:45;;;;;;;;;;;25.70;99.90;;;;;;5116345;28;20309;-71
2023/08/26 03:01:10;;;;;;;;;;;25.70;99.90;;;;;;5115912;28;19927;-71
2023/08/26 03:03:37;;;;;;;;;;;25.60;99.90;;;;;;5116417;28;20404;-71
2023/08/26 03:06:03;;;;;;;;;;;25.60;99.90;;;;;;5097468;28;19939;-70
2023/08/26 03:08:29;;;;;;;;;;;25.50;99.90;;;;;;5115862;28;19950;-71
2023/08/26 03:11:04;;;;;;;;;;;25.50;99.90;;;;;;5115569;28;19958;-71
2023/08/26 03:13:31;;;;;;;;;;;25.30;99.90;;;;;;5097485;28;19961;-69
2023/08/26 03:15:57;;;;;;;;;;;25.30;99.90;;;;;;5115681;28;19908;-71
2023/08/26 03:18:23;;;;;;;;;;;25.40;99.90;;;;;;5097380;28;19915;-71
2023/08/26 03:20:49;;;;;;;;;;;25.40;99.90;;;;;;5115808;28;19912;-71
2023/08/26 03:23:15;;;;;;;;;;;25.40;99.90;;;;;;5097145;28;20260;-71
2023/08/26 03:25:41;;;;;;;;;;;25.50;99.90;;;;;;5115366;28;19908;-72
2023/08/26 03:28:10;;;;;;;;;;;25.50;99.90;;;;;;5115995;28;19930;-71
2023/08/26 03:30:36;;;;;;;;;;;25.50;99.90;;;;;;5115465;28;19908;-71
2023/08/26 03:33:02;;;;;;;;;;;25.50;99.90;;;;;;5115676;28;19981;-72
2023/08/26 03:35:28;;;;;;;;;;;25.50;99.90;;;;;;5115086;28;20355;-71
2023/08/26 03:37:53;;;;;;;;;;;25.50;99.90;;;;;;5115515;28;19916;-71
2023/08/26 03:40:22;;;;;;;;;;;25.50;99.90;;;;;;5114933;28;20293;-71
2023/08/26 03:42:51;;;;;;;;;;;25.50;99.90;;;;;;5115131;28;20322;-71
2023/08/26 03:45:17;;;;;;;;;;;25.60;99.90;;;;;;5115095;28;20386;-71
2023/08/26 03:47:43;;;;;;;;;;;25.60;99.90;;;;;;5115259;28;19907;-71
2023/08/26 03:50:09;;;;;;;;;;;25.60;99.90;;;;;;5115022;28;19930;-71
2023/08/26 03:52:35;;;;;;;;;;;25.60;99.90;;;;;;5096579;28;19915;-71
2023/08/26 03:55:04;;;;;;;;;;;25.60;99.90;;;;;;5115270;28;20256;-71
2023/08/26 03:57:30;;;;;;;;;;;25.60;99.90;;;;;;5115167;28;19908;-71
2023/08/26 03:59:56;;;;;;;;;;;25.50;99.90;;;;;;5114829;28;19907;-71
2023/08/26 04:02:21;;;;;;;;;;;25.50;99.90;;;;;;5115278;28;19916;-71
2023/08/26 04:04:47;;;;;;;;;;;25.50;99.90;;;;;;5113708;28;19990;-71
2023/08/26 04:07:13;;;;;;;;;;;25.40;99.90;;;;;;5115183;28;19915;-71
2023/08/26 04:09:39;;;;;;;;;;;25.40;99.90;;;;;;5114631;28;19908;-71
2023/08/26 04:12:05;;;;;;;;;;;25.30;99.90;;;;;;5114349;28;19998;-71
2023/08/26 04:14:31;;;;;;;;;;;25.30;99.90;;;;;;5114632;28;20355;-71
2023/08/26 04:16:56;;;;;;;;;;;25.40;99.90;;;;;;5115025;28;19954;-71
2023/08/26 04:19:22;;;;;;;;;;;25.50;99.90;;;;;;5114505;28;19916;-72
2023/08/26 04:21:49;;;;;;;;;;;25.50;99.90;;;;;;5114899;28;19923;-71
2023/08/26 04:24:14;;;;;;;;;;;25.50;99.90;;;;;;5114444;28;20003;-70
2023/08/26 04:26:40;;;;;;;;;;;25.50;99.90;;;;;;5114268;28;19995;-71
2023/08/26 04:29:07;;;;;;;;;;;25.50;99.90;;;;;;5114287;28;19908;-71
2023/08/26 04:31:33;;;;;;;;;;;25.50;99.90;;;;;;5095930;28;19911;-71
2023/08/26 04:33:59;;;;;;;;;;;25.50;99.90;;;;;;5114787;28;19908;-71
2023/08/26 04:36:25;;;;;;;;;;;25.50;99.90;;;;;;5114080;28;20317;-71
2023/08/26 04:38:50;;;;;;;;;;;25.60;99.90;;;;;;5114240;28;19907;-71
2023/08/26 04:41:17;;;;;;;;;;;25.60;99.90;;;;;;5114156;28;20392;-70
2023/08/26 04:43:43;;;;;;;;;;;25.60;99.90;;;;;;5114101;28;19916;-71
2023/08/26 04:46:09;;;;;;;;;;;25.70;99.90;;;;;;5114623;28;20034;-71
2023/08/26 04:48:35;;;;;;;;;;;25.80;99.90;;;;;;5113960;28;19907;-71
2023/08/26 04:51:00;;;;;;;;;;;25.80;99.90;;;;;;5114058;28;20414;-71
2023/08/26 04:53:26;;;;;;;;;;;25.90;99.90;;;;;;5113945;28;19908;-72
2023/08/26 04:55:52;;;;;;;;;;;25.90;99.90;;;;;;5113875;28;20295;-71
2023/08/26 04:58:18;;;;;;;;;;;26.00;99.90;;;;;;5114551;28;19947;-71
2023/08/26 05:00:45;;;;;;;;;;;26.00;99.90;;;;;;5113939;28;19912;-71
2023/08/26 05:03:11;;;;;;;;;;;26.10;99.90;;;;;;5095627;28;19912;-71
2023/08/26 05:05:39;;;;;;;;;;;26.10;99.90;;;;;;5113934;28;19915;-71
2023/08/26 05:08:05;;;;;;;;;;;26.20;99.90;;;;;;5113914;28;20326;-71
2023/08/26 05:10:31;;;;;;;;;;;26.30;99.90;;;;;;5113780;28;19907;-71
2023/08/26 05:12:57;;;;;;;;;;;26.40;99.90;;;;;;5114083;28;20390;-71
2023/08/26 05:15:23;;;;;;;;;;;26.30;99.90;;;;;;5114789;28;20390;-70
2023/08/26 05:17:49;;;;;;;;;;;26.30;99.90;;;;;;5099635;28;19908;-71
2023/08/26 05:20:14;;;;;;;;;;;26.10;99.90;;;;;;5118490;28;19991;-71
2023/08/26 05:22:41;;;;;;;;;;;26.30;99.90;;;;;;5117706;28;19916;-71
2023/08/26 05:25:07;;;;;;;;;;;26.60;99.90;;;;;;5117690;28;19915;-71
2023/08/26 05:27:32;;;;;;;;;;;27.10;99.90;;;;;;5117885;28;19912;-71
2023/08/26 05:29:59;;;;;;;;;;;27.50;99.90;;;;;;5118282;28;19908;-71
2023/08/26 05:32:25;;;;;;;;;;;27.80;99.90;;;;;;5117677;28;19908;-71
2023/08/26 05:34:51;;;;;;;;;;;28.00;99.90;;;;;;5117447;28;20002;-71
2023/08/26 05:37:17;;;;;;;;;;;28.30;99.90;;;;;;5099371;28;20397;-70
2023/08/26 05:39:44;;;;;;;;;;;28.70;99.90;;;;;;5117415;28;19950;-71
2023/08/26 05:42:10;;;;;;;;;;;29.00;99.90;;;;;;5117352;28;19930;-72
2023/08/26 05:44:35;;;;;;;;;;;29.10;99.90;;;;;;5099161;28;19907;-71
2023/08/26 05:47:01;;;;;;;;;;;29.20;99.90;;;;;;5099138;28;19915;-71
2023/08/26 05:49:27;;;;;;;;;;;29.60;99.90;;;;;;5117552;28;20321;-71
2023/08/26 05:51:53;;;;;;;;;;;30.40;99.90;;;;;;5117280;28;19911;-71
2023/08/26 05:54:19;;;;;;;;;;;31.00;99.90;;;;;;5117579;28;19933;-72
2023/08/26 05:56:45;;;;;;;;;;;31.50;99.90;;;;;;5116925;28;20018;-71
2023/08/26 05:59:11;;;;;;;;;;;31.40;99.90;;;;;;5098864;28;19912;-71
2023/08/26 06:01:37;;;;;;;;;;;31.30;99.90;;;;;;5116983;28;19959;-71
2023/08/26 06:04:03;;;;;;;;;;;31.60;99.90;;;;;;5116768;28;19907;-71
2023/08/26 06:06:29;;;;;;;;;;;31.80;99.50;;;;;;5116876;28;20386;-72
2023/08/26 06:08:57;;;;;;;;;;;31.60;98.80;;;;;;5117477;28;19907;-71
2023/08/26 06:11:23;;;;;;;;;;;31.50;98.40;;;;;;5098432;28;19918;-72
2023/08/26 06:13:49;;;;;;;;;;;31.80;98.00;;;;;;5116860;28;20418;-71
2023/08/26 06:16:19;;;;;;;;;;;32.20;97.40;;;;;;5116798;28;20009;-72
2023/08/26 06:18:45;;;;;;;;;;;32.20;97.40;;;;;;5117214;28;19908;-71
2023/08/26 06:21:11;;;;;;;;;;;32.10;97.60;;;;;;5098266;28;19915;-71
2023/08/26 06:23:37;;;;;;;;;;;32.40;97.20;;;;;;5116511;28;20348;-72
2023/08/26 06:26:03;;;;;;;;;;;32.40;97.00;;;;;;5116714;28;19918;-71
2023/08/26 06:28:30;;;;;;;;;;;32.10;97.00;;;;;;5115609;28;19914;-72
2023/08/26 06:30:59;;;;;;;;;;;32.30;97.30;;;;;;5116897;28;19908;-72
2023/08/26 06:33:25;;;;;;;;;;;33.20;96.20;;;;;;5116841;28;19907;-71
2023/08/26 06:35:51;;;;;;;;;;;33.50;95.10;;;;;;5116539;28;19942;-71
2023/08/26 06:38:17;;;;;;;;;;;33.80;94.70;;;;;;5098175;28;19915;-72
2023/08/26 06:40:43;;;;;;;;;;;33.40;95.00;;;;;;5097872;28;20320;-72
2023/08/26 06:43:09;;;;;;;;;;;33.40;94.90;;;;;;5098048;28;19919;-71
2023/08/26 06:45:34;;;;;;;;;;;33.90;94.50;;;;;;5116403;28;19921;-71
2023/08/26 06:48:00;;;;;;;;;;;33.80;93.80;;;;;;5116534;28;19908;-72
2023/08/26 06:50:28;;;;;;;;;;;34.30;93.40;;;;;;5116366;28;19953;-72
2023/08/26 06:52:55;;;;;;;;;;;35.30;92.60;;;;;;5116119;28;19908;-72
2023/08/26 06:55:21;;;;;;;;;;;35.40;92.10;;;;;;5115822;28;20287;-72
2023/08/26 06:57:46;;;;;;;;;;;35.90;91.90;;;;;;5097541;28;19909;-69
2023/08/26 07:00:13;;;;;;;;;;;36.20;90.90;;;;;;5115976;28;19915;-69
2023/08/26 07:02:39;;;;;;;;;;;36.60;90.50;;;;;;5115355;28;20008;-69
2023/08/26 07:05:05;;;;;;;;;;;36.60;90.30;;;;;;5097140;28;20283;-70
2023/08/26 07:07:31;;;;;;;;;;;36.60;90.50;;;;;;5115361;28;19908;-69
2023/08/26 07:09:57;;;;;;;;;;;36.20;90.60;;;;;;5096914;28;19908;-70
2023/08/26 07:12:23;;;;;;;;;;;35.70;91.10;;;;;;5115218;28;19912;-70
2023/08/26 07:14:49;;;;;;;;;;;35.00;91.70;;;;;;5096944;28;19908;-70
2023/08/26 07:17:17;;;;;;;;;;;34.90;91.90;;;;;;5115393;28;19914;-70
2023/08/26 07:19:44;;;;;;;;;;;34.70;92.10;;;;;;5096817;28;19912;-70
2023/08/26 07:22:10;;;;;;;;;;;34.70;92.10;;;;;;5115948;28;20267;-70
2023/08/26 07:24:37;;;;;;;;;;;34.80;92.60;;;;;;5115702;28;19908;-72
2023/08/26 07:27:03;;;;;;;;;;;34.90;91.40;;;;;;5114925;28;19954;-70
2023/08/26 07:29:31;;;;;;;;;;;35.70;91.00;;;;;;5115038;28;19974;-70
2023/08/26 07:31:57;;;;;;;;;;;36.70;91.00;;;;;;5114992;28;19961;-71
2023/08/26 07:34:22;;;;;;;;;;;37.20;90.10;;;;;;5115045;28;19966;-71
2023/08/26 07:36:48;;;;;;;;;;;37.40;88.40;;;;;;5094452;28;20286;-70
2023/08/26 07:39:14;;;;;;;;;;;37.00;87.20;;;;;;5094418;28;19908;-71
2023/08/26 07:41:40;;;;;;;;;;;37.00;86.40;;;;;;5094288;28;19916;-71
2023/08/26 07:44:05;;;;;;;;;;;36.90;86.80;;;;;;5094709;28;19931;-71
2023/08/26 07:46:33;;;;;;;;;;;36.90;86.40;;;;;;5094013;28;20397;-71
2023/08/26 07:48:59;;;;;;;;;;;37.00;83.60;;;;;;5094705;28;20383;-71
2023/08/26 07:51:25;;;;;;;;;;;37.00;82.30;;;;;;5094482;28;19950;-71
2023/08/26 07:53:51;;;;;;;;;;;36.30;81.50;;;;;;5093071;28;20352;-71
2023/08/26 07:56:17;;;;;;;;;;;36.50;81.70;;;;;;5094377;28;19912;-71
2023/08/26 07:58:42;;;;;;;;;;;36.80;81.50;;;;;;5094517;28;19983;-71
2023/08/26 08:01:08;;;;;;;;;;;36.40;80.00;;;;;;5094313;28;20015;-71
2023/08/26 08:03:34;;;;;;;;;;;35.90;78.50;;;;;;5094783;28;20267;-70
2023/08/26 08:06:00;;;;;;;;;;;35.70;79.70;;;;;;5094212;28;19908;-71
2023/08/26 08:08:25;;;;;;;;;;;35.90;79.60;;;;;;5094546;28;19995;-71
2023/08/26 08:10:54;;;;;;;;;;;36.50;79.90;;;;;;5092476;28;19908;-70
2023/08/26 08:13:20;;;;;;;;;;;36.90;83.30;;;;;;5094092;28;19912;-70
2023/08/26 08:15:46;;;;;;;;;;;37.20;85.20;;;;;;5094627;28;19917;-70
2023/08/26 08:18:11;;;;;;;;;;;37.40;86.50;;;;;;5094033;28;19912;-71
2023/08/26 08:20:37;;;;;;;;;;;37.60;86.20;;;;;;5094287;28;19942;-71
2023/08/26 08:23:03;;;;;;;;;;;37.50;90.40;;;;;;5093840;28;19916;-71
2023/08/26 08:25:29;;;;;;;;;;;37.60;91.00;;;;;;5094122;28;19916;-70
2023/08/26 08:27:55;;;;;;;;;;;37.60;91.60;;;;;;5092644;28;19908;-71
2023/08/26 08:30:21;;;;;;;;;;;37.70;92.50;;;;;;5094094;28;19915;-71
2023/08/26 08:32:47;;;;;;;;;;;37.60;93.60;;;;;;5093715;28;19930;-71
2023/08/26 08:35:13;;;;;;;;;;;37.20;94.90;;;;;;5100889;28;19916;-71
2023/08/26 08:37:40;;;;;;;;;;;37.20;95.70;;;;;;5114087;28;20410;-71
2023/08/26 08:40:06;;;;;;;;;;;37.20;96.30;;;;;;5113784;28;19911;-71
2023/08/26 08:42:34;;;;;;;;;;;37.40;96.20;;;;;;5113566;28;19961;-71
2023/08/26 08:45:01;;;;;;;;;;;37.30;96.50;;;;;;5113933;28;19912;-70
2023/08/26 08:47:27;;;;;;;;;;;37.20;96.70;;;;;;5114465;28;19926;-70
2023/08/26 08:49:53;;;;;;;;;;;37.00;96.90;;;;;;5113781;28;19975;-71
2023/08/26 08:52:19;;;;;;;;;;;37.10;96.80;;;;;;5114231;28;20368;-71
2023/08/26 08:54:45;;;;;;;;;;;37.20;96.60;;;;;;5114295;28;19915;-71
2023/08/26 08:57:12;;;;;;;;;;;36.90;96.40;;;;;;5113993;28;19918;-70
2023/08/26 08:59:38;;;;;;;;;;;36.70;96.90;;;;;;5113969;28;20237;-72
2023/08/26 09:02:05;;;;;;;;;;;36.80;97.80;;;;;;5113774;28;19923;-71
2023/08/26 09:04:31;;;;;;;;;;;36.60;98.30;;;;;;5113807;28;19914;-71
2023/08/26 09:06:57;;;;;;;;;;;36.60;99.00;;;;;;5114059;28;20296;-72
2023/08/26 09:09:23;;;;;;;;;;;36.10;99.90;;;;;;5113844;28;19919;-70
2023/08/26 09:11:50;;;;;;;;;;;36.10;99.90;;;;;;5113674;28;19955;-71
2023/08/26 09:14:16;;;;;;;;;;;36.20;99.90;;;;;;5113972;28;20264;-71
2023/08/26 09:16:42;;;;;;;;;;;36.20;99.90;;;;;;5113692;28;19907;-71
2023/08/26 09:19:10;;;;;;;;;;;35.60;99.90;;;;;;5096006;28;20275;-71
2023/08/26 09:21:45;;;;;;;;;;;35.60;99.90;;;;;;5095265;28;19920;-71
2023/08/26 09:24:15;;;;;;;;;;;35.60;99.90;;;;;;5113442;28;19912;-70
2023/08/26 09:26:42;;;;;;;;;;;35.70;99.90;;;;;;5113332;28;20359;-70
2023/08/26 09:29:12;;;;;;;;;;;35.50;99.90;;;;;;5113831;28;19912;-70
2023/08/26 09:31:48;;;;;;;;;;;35.60;99.90;;;;;;5113472;28;19908;-70
2023/08/26 09:34:22;;;;;;;;;;;35.10;99.90;;;;;;5113382;28;19995;-71
2023/08/26 09:36:48;;;;;;;;;;;35.00;99.90;;;;;;5113395;28;19919;-70
2023/08/26 09:39:14;;;;;;;;;;;35.00;99.90;;;;;;5114009;28;20383;-71
2023/08/26 09:41:44;;;;;;;;;;;35.00;99.90;;;;;;5113365;28;19922;-71
2023/08/26 09:44:10;;;;;;;;;;;35.00;99.90;;;;;;5113803;28;20007;-71
2023/08/26 09:46:36;;;;;;;;;;;35.00;99.90;;;;;;5113615;28;19915;-70
2023/08/26 09:49:03;;;;;;;;;;;34.70;99.90;;;;;;5113701;28;19998;-72
2023/08/26 09:51:32;;;;;;;;;;;34.70;99.90;;;;;;5113465;28;19908;-71
2023/08/26 09:53:59;;;;;;;;;;;34.80;99.90;;;;;;5113270;28;19908;-72
2023/08/26 09:56:26;;;;;;;;;;;34.70;99.90;;;;;;5113216;28;19908;-70
2023/08/26 09:58:52;;;;;;;;;;;34.70;99.90;;;;;;5114004;28;19908;-71
2023/08/26 10:01:20;;;;;;;;;;;34.90;99.90;;;;;;5114216;28;19955;-71
2023/08/26 10:03:49;;;;;;;;;;;34.80;99.90;;;;;;5117625;28;19908;-71
2023/08/26 10:06:16;;;;;;;;;;;34.90;99.90;;;;;;5116994;28;19908;-71
2023/08/26 10:08:42;;;;;;;;;;;34.40;99.90;;;;;;5117474;28;19911;-71
2023/08/26 10:11:10;;;;;;;;;;;34.30;99.90;;;;;;5116714;28;20007;-71
2023/08/26 10:13:37;;;;;;;;;;;34.10;99.90;;;;;;5117472;28;20002;-71
2023/08/26 10:16:05;;;;;;;;;;;34.30;99.90;;;;;;5116840;28;19908;-71
2023/08/26 10:18:46;;;;;;;;;;;34.00;99.90;;;;;;5117112;28;19908;-71
2023/08/26 10:21:13;;;;;;;;;;;34.10;99.90;;;;;;5117386;28;19920;-71
2023/08/26 10:23:39;;;;;;;;;;;34.00;99.90;;;;;;5116656;28;19953;-71
2023/08/26 10:26:06;;;;;;;;;;;34.10;99.90;;;;;;5116633;28;20351;-71
2023/08/26 10:28:32;;;;;;;;;;;34.10;99.90;;;;;;5116634;28;19994;-71
2023/08/26 10:30:58;;;;;;;;;;;34.00;99.90;;;;;;5117181;28;19908;-72
2023/08/26 10:33:24;;;;;;;;;;;33.80;99.90;;;;;;5116577;28;19919;-71
2023/08/26 10:35:59;;;;;;;;;;;34.10;99.90;;;;;;5116299;28;20003;-70
2023/08/26 10:38:26;;;;;;;;;;;33.90;99.90;;;;;;5116361;28;20027;-71
2023/08/26 10:41:11;;;;;;;;;;;33.80;99.90;;;;;;5115843;28;19964;-71
2023/08/26 10:43:37;;;;;;;;;;;33.70;99.90;;;;;;5116357;28;19911;-71
2023/08/26 10:46:03;;;;;;;;;;;33.50;99.90;;;;;;5116282;28;19930;-72
2023/08/26 10:48:29;;;;;;;;;;;33.70;99.90;;;;;;5116198;28;19915;-71
2023/08/26 10:51:01;;;;;;;;;;;33.90;99.90;;;;;;5097830;28;19975;-70
2023/08/26 10:53:27;;;;;;;;;;;34.00;99.90;;;;;;5115975;28;19914;-71
2023/08/26 10:56:10;;;;;;;;;;;33.90;99.90;;;;;;5116165;28;19908;-71
2023/08/26 10:58:44;;;;;;;;;;;33.90;99.90;;;;;;5115981;28;20293;-71
2023/08/26 11:01:10;;;;;;;;;;;33.60;99.90;;;;;;5116019;28;20056;-71
2023/08/26 11:03:36;;;;;;;;;;;33.70;99.90;;;;;;5116078;28;20031;-70
2023/08/26 11:06:04;;;;;;;;;;;33.60;99.90;;;;;;5115843;28;19908;-71
2023/08/26 11:08:30;;;;;;;;;;;33.60;99.90;;;;;;5116381;28;19998;-71
2023/08/26 11:10:56;;;;;;;;;;;33.60;99.90;;;;;;5115633;28;19957;-70
2023/08/26 11:13:22;;;;;;;;;;;33.90;99.90;;;;;;5115383;28;19984;-71
2023/08/26 11:15:49;;;;;;;;;;;34.10;99.90;;;;;;5115537;28;19955;-73
2023/08/26 11:18:15;;;;;;;;;;;34.50;99.90;;;;;;5116079;28;19907;-71
2023/08/26 11:20:42;;;;;;;;;;;34.70;99.90;;;;;;5115442;28;20391;-71
2023/08/26 11:23:08;;;;;;;;;;;34.80;99.90;;;;;;5115400;28;19912;-73
2023/08/26 11:25:34;;;;;;;;;;;35.00;99.90;;;;;;5115780;28;19912;-71
2023/08/26 11:28:03;;;;;;;;;;;35.00;99.90;;;;;;5115568;28;19914;-71
2023/08/26 11:30:30;;;;;;;;;;;34.90;99.90;;;;;;5115454;28;19908;-71
2023/08/26 11:32:58;;;;;;;;;;;34.90;99.90;;;;;;5115659;28;20368;-72
2023/08/26 11:35:24;;;;;;;;;;;34.70;99.90;;;;;;5115099;28;19931;-71
2023/08/26 11:37:50;;;;;;;;;;;34.50;99.20;;;;;;5115136;28;19908;-71
2023/08/26 11:40:16;;;;;;;;;;;34.60;98.80;;;;;;5115944;28;19976;-71
2023/08/26 11:42:43;;;;;;;;;;;34.50;98.50;;;;;;5114908;28;20313;-70
2023/08/26 11:45:10;;;;;;;;;;;34.80;98.20;;;;;;5115171;28;20403;-71
2023/08/26 11:47:36;;;;;;;;;;;34.80;97.80;;;;;;5115560;28;19907;-71
2023/08/26 11:50:03;;;;;;;;;;;34.80;98.10;;;;;;5115700;28;19908;-71
2023/08/26 11:52:33;;;;;;;;;;;34.70;98.20;;;;;;5114914;28;19939;-70
2023/08/26 11:55:00;;;;;;;;;;;34.60;97.50;;;;;;5114898;28;19915;-71
2023/08/26 11:57:26;;;;;;;;;;;34.70;97.20;;;;;;5114676;28;19907;-71
2023/08/26 11:59:52;;;;;;;;;;;34.70;96.70;;;;;;5114941;28;20013;-72
2023/08/26 12:02:22;;;;;;;;;;;35.00;96.20;;;;;;5115015;28;20268;-71
2023/08/26 12:04:57;;;;;;;;;;;35.00;96.00;;;;;;5114790;28;19943;-71
2023/08/26 12:07:26;;;;;;;;;;;35.10;95.60;;;;;;5115004;28;20422;-71
2023/08/26 12:09:53;;;;;;;;;;;35.20;95.10;;;;;;5114993;28;20335;-72
2023/08/26 12:12:20;;;;;;;;;;;35.20;94.20;;;;;;5114580;28;20010;-72
2023/08/26 12:14:46;;;;;;;;;;;35.40;93.30;;;;;;5115181;28;19954;-71
2023/08/26 12:17:12;;;;;;;;;;;35.40;92.30;;;;;;5114662;28;19912;-71
2023/08/26 12:19:39;;;;;;;;;;;35.30;92.10;;;;;;5115076;28;19907;-71
2023/08/26 12:22:05;;;;;;;;;;;35.30;91.70;;;;;;5114303;28;20011;-72
2023/08/26 12:24:31;;;;;;;;;;;35.30;91.70;;;;;;5114571;28;19908;-71
2023/08/26 12:27:06;;;;;;;;;;;35.30;91.70;;;;;;5113976;28;20010;-71
2023/08/26 12:29:31;;;;;;;;;;;34.90;91.10;;;;;;5114554;28;19908;-71
2023/08/26 12:31:57;;;;;;;;;;;34.80;91.80;;;;;;5114850;28;19915;-72
2023/08/26 12:34:23;;;;;;;;;;;34.90;92.00;;;;;;5114335;28;19959;-71
2023/08/26 12:36:49;;;;;;;;;;;34.90;92.50;;;;;;5114095;28;19919;-71
2023/08/26 12:39:14;;;;;;;;;;;35.20;92.90;;;;;;5114287;28;19914;-71
2023/08/26 12:41:41;;;;;;;;;;;35.30;93.90;;;;;;5114032;28;20360;-71
2023/08/26 12:44:08;;;;;;;;;;;35.00;95.00;;;;;;5114445;28;19935;-72
2023/08/26 12:46:34;;;;;;;;;;;35.20;95.50;;;;;;5115371;28;19935;-72
2023/08/26 12:49:01;;;;;;;;;;;35.40;96.90;;;;;;5113974;28;19990;-72
2023/08/26 12:51:26;;;;;;;;;;;35.40;98.90;;;;;;5095824;28;20397;-72
2023/08/26 12:53:52;;;;;;;;;;;35.30;99.90;;;;;;5114029;28;19907;-72
2023/08/26 12:56:19;;;;;;;;;;;35.30;99.90;;;;;;5113862;28;19961;-70
2023/08/26 12:58:44;;;;;;;;;;;34.90;99.90;;;;;;5114015;28;19918;-71
2023/08/26 13:01:10;;;;;;;;;;;34.70;99.90;;;;;;5114488;28;20271;-71
2023/08/26 13:03:36;;;;;;;;;;;34.30;99.90;;;;;;5095754;28;20352;-69
2023/08/26 13:06:02;;;;;;;;;;;34.20;99.90;;;;;;5114715;28;19908;-71
2023/08/26 13:08:28;;;;;;;;;;;34.50;99.90;;;;;;5095554;28;19961;-71
2023/08/26 13:10:54;;;;;;;;;;;34.50;99.90;;;;;;5114155;28;20271;-71
2023/08/26 13:13:20;;;;;;;;;;;34.60;99.90;;;;;;5114396;28;19907;-71
2023/08/26 13:15:46;;;;;;;;;;;34.30;99.90;;;;;;5114028;28;19907;-71
2023/08/26 13:18:12;;;;;;;;;;;34.50;99.90;;;;;;5113804;28;20003;-71
2023/08/26 13:20:38;;;;;;;;;;;34.50;99.90;;;;;;5113722;28;19943;-71
2023/08/26 13:23:04;;;;;;;;;;;34.80;99.90;;;;;;5113744;28;20347;-71
2023/08/26 13:25:34;;;;;;;;;;;34.50;99.90;;;;;;5114012;28;19944;-72
2023/08/26 13:28:00;;;;;;;;;;;34.70;99.90;;;;;;5113564;28;19937;-72
2023/08/26 13:30:26;;;;;;;;;;;34.70;99.90;;;;;;5114122;28;19908;-71
2023/08/26 13:32:52;;;;;;;;;;;34.40;99.90;;;;;;5095370;28;19947;-73
2023/08/26 13:35:18;;;;;;;;;;;34.40;99.90;;;;;;5113327;28;19922;-70
2023/08/26 13:37:44;;;;;;;;;;;34.30;99.90;;;;;;5116770;28;20335;-71
2023/08/26 13:40:10;;;;;;;;;;;34.20;99.90;;;;;;5117638;28;19909;-72
2023/08/26 13:42:35;;;;;;;;;;;34.00;99.90;;;;;;5117335;28;20352;-72
2023/08/26 13:45:01;;;;;;;;;;;34.30;99.90;;;;;;5117546;28;20012;-71
2023/08/26 13:47:27;;;;;;;;;;;34.30;99.90;;;;;;5117415;28;19915;-71
2023/08/26 13:49:53;;;;;;;;;;;34.30;99.90;;;;;;5117640;28;19915;-71
2023/08/26 13:52:19;;;;;;;;;;;34.40;99.90;;;;;;5117312;28;19908;-71
2023/08/26 13:54:45;;;;;;;;;;;34.20;99.90;;;;;;5117490;28;19919;-72
2023/08/26 13:57:11;;;;;;;;;;;34.30;99.90;;;;;;5098836;28;19908;-72
2023/08/26 13:59:38;;;;;;;;;;;33.90;99.90;;;;;;5117662;28;19953;-71
2023/08/26 14:02:06;;;;;;;;;;;34.00;99.90;;;;;;5117301;28;19916;-71
2023/08/26 14:04:33;;;;;;;;;;;34.10;99.90;;;;;;5117535;28;19914;-72
2023/08/26 14:06:58;;;;;;;;;;;34.10;99.90;;;;;;5117982;28;19961;-71
2023/08/26 14:09:26;;;;;;;;;;;34.10;99.90;;;;;;5117155;28;19915;-72
2023/08/26 14:11:52;;;;;;;;;;;34.40;99.90;;;;;;5117093;28;19962;-71